Latest Weather Observations for Kununurra Airport

IDD60801

Issued at 2:31 am CST Saturday 28 March 2015 (issued every 30 minutes, with the page automatically refreshed every 10 minutes)

About weather observations | Map of weather stations | Latest weather observations for NT | Other Formats
Station Details ID: 002056 Name: KUNUNURRA AERO Lat: -15.78 Lon: 128.71 Height: 44.0 m
Data from the previous 72 hours. | See also: Recent months at Kununurra Airport
Date/Time
CST
Temp
°C
App
Temp
°C
Dew
Point
Rel
Hum
%
Delta-T
°C
Wind Press
QNH
hPa
Press
MSL
hPa
Rain
since 9 am
mm
Dir
 
Spd
km/h
Gust
km/h
Spd
kts
Gust
kts
28/02:30am 24.9 30.5 23.6 92 0.9 CALM 0 7 0 4 1012.9 1012.6 0.2
28/02:00am 24.8 30.5 23.8 94 0.7 CALM 0 0 0 0 1013.2 1012.9 0.2
28/01:30am 25.2 29.7 23.6 91 1.1 SSE 6 7 3 4 1013.4 1013.1 0.2
28/01:00am 25.2 29.5 23.6 91 1.1 SSE 7 9 4 5 1013.8 1013.5 0.2
28/12:30am 25.1 30.9 23.9 93 0.8 CALM 0 0 0 0 1014.1 1013.8 0.2
28/12:00am 25.0 30.7 23.8 93 0.8 CALM 0 0 0 0 1014.6 1014.3 0.2
 
Date/Time
CST
Temp
°C
App
Temp
°C
Dew
Point
Rel
Hum
%
Delta-T
°C
Wind Press
QNH
hPa
Press
MSL
hPa
Rain
since 9 am
mm
Dir
 
Spd
km/h
Gust
km/h
Spd
kts
Gust
kts
27/11:30pm 25.0 30.4 23.2 90 1.2 CALM 0 0 0 0 1014.9 1014.6 0.2
27/11:00pm 24.7 30.3 23.5 93 0.8 CALM 0 0 0 0 1015.2 1014.9 0.2
27/10:30pm 25.1 30.5 23.2 89 1.3 CALM 0 0 0 0 1015.1 1014.8 0.2
27/10:00pm 25.1 30.3 23.5 91 1.1 NNE 2 6 1 3 1014.9 1014.6 0.2
27/09:30pm 25.5 29.2 22.5 83 2.0 N 7 9 4 5 1014.7 1014.4 0.2
27/09:00pm 25.8 31.1 23.0 84 1.9 CALM 0 0 0 0 1014.6 1014.3 0.2
27/08:30pm 25.7 30.6 23.7 89 1.4 N 4 7 2 4 1014.3 1014.0 0.2
27/08:00pm 25.9 29.3 24.0 89 1.3 NNE 13 22 7 12 1014.3 1014.0 0.2
27/07:30pm 25.6 30.9 24.3 92 0.9 WNW 4 7 2 4 1013.5 1013.2 0.2
27/07:00pm 25.7 30.0 24.3 92 1.0 NNW 9 9 5 5 1012.8 1012.5 0.2
27/06:30pm 26.1 30.1 23.8 87 1.6 NNW 9 13 5 7 1012.5 1012.2 0.2
27/06:00pm 26.3 28.9 24.0 87 1.6 NNW 17 20 9 11 1012.5 1012.2 0.2
27/05:30pm 26.1 28.4 24.1 89 1.4 NNW 19 22 10 12 1012.4 1012.1 0.2
27/05:00pm 26.2 27.7 23.7 86 1.7 N 22 30 12 16 1012.0 1011.7 0.2
27/04:30pm 30.6 31.3 22.2 61 5.7 ENE 22 28 12 15 1011.6 1011.3 0.2
27/04:00pm 30.8 31.4 22.1 59 5.9 ESE 22 32 12 17 1011.4 1011.1 0.2
27/03:30pm 30.9 31.5 22.1 59 6.0 E 22 28 12 15 1011.8 1011.5 0.2
27/03:00pm 30.7 30.9 22.0 59 5.9 E 24 30 13 16 1012.3 1012.0 0.2
27/02:30pm 30.3 31.2 22.0 61 5.6 ESE 20 30 11 16 1012.7 1012.4 0.2
27/02:00pm 29.7 30.5 21.8 62 5.3 E 20 28 11 15 1013.1 1012.8 0.2
27/01:30pm 30.1 31.1 22.8 65 5.0 E 22 32 12 17 1013.4 1013.1 0.2
27/01:00pm 29.6 30.7 23.0 67 4.5 E 22 28 12 15 1013.8 1013.5 0.2
27/12:30pm 28.4 30.1 23.0 72 3.7 SE 19 24 10 13 1014.4 1014.1 0.0
27/12:00pm 27.6 29.9 23.5 78 2.8 ESE 17 20 9 11 1015.1 1014.8 0.0
27/11:30am 27.2 29.4 23.2 79 2.7 SE 17 24 9 13 1015.3 1015.0 0.0
27/11:00am 26.9 28.8 23.4 81 2.4 SE 19 26 10 14 1015.5 1015.2 0.0
27/10:30am 26.9 29.2 23.4 81 2.4 ESE 17 24 9 13 1015.7 1015.4 11.6
27/10:00am 26.6 29.0 23.7 84 2.0 E 17 22 9 12 1015.7 1015.4 11.6
27/09:56am 26.4 28.9 23.8 85 1.8 E 17 20 9 11 1015.7 1015.4 11.6
27/09:41am 25.8 28.8 23.3 86 1.7 ESE 13 19 7 10 1015.7 1015.4 11.6
27/09:30am 25.5 27.7 23.3 88 1.5 ESE 17 22 9 12 1015.7 1015.4 11.6
27/09:00am 25.2 28.6 23.4 90 1.2 ESE 11 15 6 8 1015.6 1015.3 11.6
27/08:30am 24.7 29.6 23.1 91 1.1 NNE 2 7 1 4 1015.4 1015.1 11.6
27/08:00am 24.4 28.4 23.1 92 0.9 ENE 7 9 4 5 1015.4 1015.1 11.6
27/07:30am 24.2 27.8 23.0 93 0.8 E 9 11 5 6 1015.2 1015.0 11.6
27/07:00am 24.1 28.3 23.1 94 0.7 ESE 6 7 3 4 1014.8 1014.5 11.6
27/06:30am 23.9 27.5 23.0 95 0.6 E 9 13 5 7 1014.3 1014.0 11.6
27/06:00am 23.9 27.1 23.0 95 0.6 ESE 11 15 6 8 1014.1 1013.8 11.6
27/05:30am 24.0 26.6 22.7 92 0.9 E 13 17 7 9 1014.0 1013.7 11.2
27/05:00am 24.0 27.1 22.8 93 0.8 ESE 11 17 6 9 1013.8 1013.5 11.2
27/04:30am 24.0 26.7 22.8 93 0.8 ESE 13 17 7 9 1013.9 1013.6 11.0
27/04:09am 24.0 26.0 23.0 94 0.7 ESE 17 20 9 11 1014.1 1013.8 11.0
27/04:00am 24.0 26.1 23.1 95 0.6 ESE 17 22 9 12 1014.1 1013.8 11.0
27/03:48am 23.9 25.6 23.0 95 0.6 ESE 19 24 10 13 1014.3 1014.0 10.8
27/03:30am 23.9 25.9 23.0 95 0.6 SE 17 20 9 11 1014.3 1014.0 10.6
27/03:00am 23.9 25.4 23.0 95 0.6 ESE 20 26 11 14 1014.6 1014.3 10.0
27/02:36am 24.0 25.5 23.0 94 0.7 ESE 20 30 11 16 1014.5 1014.2 9.6
27/02:30am 24.0 25.0 22.8 93 0.8 ESE 22 33 12 18 1014.5 1014.2 9.6
27/02:00am 24.3 25.4 23.1 93 0.8 ESE 22 30 12 16 1014.7 1014.4 9.6
27/01:40am 24.4 25.2 23.1 92 0.9 ESE 24 33 13 18 1014.7 1014.4 9.2
27/01:30am 24.4 25.6 23.2 93 0.8 ESE 22 33 12 18 1014.7 1014.4 9.2
27/01:00am 24.5 24.8 23.0 91 1.0 SE 26 37 14 20 1014.8 1014.5 9.0
27/12:30am 24.2 25.8 23.2 94 0.7 SE 20 26 11 14 1015.1 1014.8 8.8
27/12:00am 24.0 25.1 23.1 95 0.6 ESE 22 28 12 15 1015.1 1014.8 8.2
 
Date/Time
CST
Temp
°C
App
Temp
°C
Dew
Point
Rel
Hum
%
Delta-T
°C
Wind Press
QNH
hPa
Press
MSL
hPa
Rain
since 9 am
mm
Dir
 
Spd
km/h
Gust
km/h
Spd
kts
Gust
kts
26/11:31pm 24.1 25.9 23.2 95 0.6 SE 19 24 10 13 1015.2 1014.9 7.6
26/11:30pm 24.1 26.0 23.4 96 0.5 SE 19 24 10 13 1015.3 1015.0 7.6
26/11:05pm 24.0 25.9 23.4 96 0.4 ESE 19 28 10 15 1015.4 1015.1 5.6
26/11:04pm 24.0 26.4 23.6 98 0.3 ESE 17 28 9 15 1015.4 1015.1 5.4
26/11:00pm 24.1 26.4 23.4 96 0.5 ESE 17 28 9 15 1015.4 1015.1 5.0
26/10:45pm 24.1 25.8 23.4 96 0.5 E 20 32 11 17 1015.4 1015.1 3.6
26/10:30pm 24.3 25.6 23.4 95 0.6 ESE 22 30 12 16 1015.4 1015.1 1.8
26/10:25pm 24.4 25.7 23.4 94 0.7 E 22 32 12 17 1015.4 1015.1 1.6
26/10:23pm 24.4 25.3 23.4 94 0.7 E 24 32 13 17 1015.3 1015.0 1.4
26/10:00pm 25.4 23.1 22.7 85 1.8 E 39 48 21 26 1014.9 1014.6 1.0
26/09:45pm 27.5 27.3 22.8 75 3.2 ESE 28 50 15 27 1014.3 1014.0 1.0
26/09:30pm 27.8 29.3 23.0 75 3.3 ESE 20 26 11 14 1013.8 1013.5 1.0
26/09:00pm 27.0 30.7 23.3 80 2.5 S 9 15 5 8 1013.4 1013.1 1.0
26/08:47pm 26.7 30.7 23.8 84 2.0 E 9 17 5 9 1013.3 1013.0 1.0
26/08:30pm 26.6 27.4 23.2 81 2.3 NE 24 39 13 21 1013.5 1013.2 1.0
26/08:27pm 26.4 26.5 23.3 83 2.1 NE 28 39 15 21 1013.5 1013.2 0.8
26/08:19pm 28.3 28.9 22.1 69 4.2 NE 22 39 12 21 1013.1 1012.8 0.0
26/08:00pm 30.8 32.0 20.6 54 6.8 ESE 15 19 8 10 1012.2 1011.9 0.0
26/07:30pm 30.9 31.7 20.7 54 6.8 ESE 17 20 9 11 1012.0 1011.7 0.0
26/07:00pm 31.0 31.3 20.8 54 6.8 ESE 20 26 11 14 1011.8 1011.5 0.0
26/06:30pm 31.3 32.3 21.0 54 6.9 ESE 17 24 9 13 1011.5 1011.2 0.0
26/06:00pm 31.6 31.9 20.7 52 7.3 ESE 20 24 11 13 1010.9 1010.6 0.0
26/05:30pm 31.7 32.2 20.8 52 7.3 ESE 19 26 10 14 1010.8 1010.5 0.0
26/05:00pm 31.7 32.2 21.1 53 7.1 ESE 20 28 11 15 1010.6 1010.3 0.0
26/04:30pm 31.6 32.5 21.5 55 6.8 ESE 19 24 10 13 1010.6 1010.3 0.0
26/04:00pm 31.9 31.3 21.2 53 7.2 ESE 26 32 14 17 1011.0 1010.7 0.0
26/03:30pm 30.7 29.8 21.5 58 6.2 ESE 28 35 15 19 1011.2 1010.9 0.0
26/03:00pm 30.6 29.5 21.7 59 6.0 E 30 35 16 19 1011.4 1011.1 0.0
26/02:30pm 30.2 29.7 22.1 62 5.5 E 28 41 15 22 1011.7 1011.4 0.0
26/02:00pm 29.0 27.5 21.7 64 4.9 ESE 32 39 17 21 1012.3 1012.0 0.0
26/01:30pm 29.6 28.6 21.9 63 5.2 E 30 41 16 22 1012.4 1012.1 0.0
26/01:00pm 29.4 28.3 21.7 63 5.2 ESE 30 39 16 21 1012.7 1012.4 0.0
26/12:30pm 28.5 27.7 21.6 66 4.6 ESE 28 39 15 21 1013.5 1013.2 0.0
26/12:00pm 28.9 28.5 22.3 67 4.5 ESE 28 39 15 21 1013.9 1013.6 0.0
26/11:30am 28.0 27.2 21.7 68 4.2 SE 28 41 15 22 1014.2 1013.9 0.0
26/11:00am 27.7 27.8 21.2 67 4.3 ESE 22 37 12 20 1014.2 1013.9 0.0
26/10:30am 27.9 27.4 20.8 65 4.7 SE 24 39 13 21 1014.4 1014.1 0.0
26/10:00am 27.5 26.2 20.7 66 4.5 SE 28 37 15 20 1014.2 1013.9 0.0
26/09:30am 26.6 25.7 20.7 70 3.9 SE 26 35 14 19 1014.1 1013.8 0.0
26/09:00am 26.9 27.0 20.3 67 4.3 SE 20 32 11 17 1014.1 1013.8 0.0
26/08:30am 26.1 26.3 20.5 71 3.7 SE 20 28 11 15 1013.7 1013.4 0.0
26/08:00am 26.0 26.1 20.3 71 3.7 SE 20 30 11 16 1013.5 1013.2 0.0
26/07:30am 26.0 25.4 19.8 68 4.0 ESE 22 35 12 19 1013.3 1013.0 0.0
26/07:00am 26.9 25.8 19.5 64 4.8 ESE 24 39 13 21 1012.7 1012.4 0.0
26/06:30am 26.9 26.1 19.3 63 4.9 SE 22 37 12 20 1012.2 1011.9 0.0
26/06:00am 26.7 26.7 19.8 66 4.5 SE 19 28 10 15 1011.8 1011.5 0.0
26/05:30am 26.4 27.0 20.3 69 4.0 SSE 17 24 9 13 1011.8 1011.5 0.0
26/05:00am 26.4 25.6 20.1 68 4.1 SE 24 46 13 25 1011.8 1011.5 0.0
26/04:30am 26.8 26.9 19.9 66 4.5 SE 19 26 10 14 1012.0 1011.7 0.0
26/04:00am 27.0 25.2 19.6 64 4.8 ESE 28 41 15 22 1011.9 1011.6 0.0
26/03:30am 27.2 27.2 19.7 63 4.9 SSE 19 30 10 16 1011.9 1011.6 0.0
26/03:00am 26.3 27.8 20.5 70 3.8 ESE 13 17 7 9 1011.8 1011.5 0.0
26/02:30am 25.8 25.9 21.1 75 3.1 ESE 22 32 12 17 1012.0 1011.7 0.0
26/02:00am 28.2 26.9 19.1 57 5.9 E 24 32 13 17 1012.2 1011.9 0.0
26/01:30am 28.9 26.6 18.5 53 6.7 ESE 28 41 15 22 1012.4 1012.1 0.0
26/01:00am 29.0 27.2 18.8 54 6.6 ESE 26 33 14 18 1012.6 1012.3 0.0
26/12:30am 29.1 28.1 18.9 54 6.6 ESE 22 32 12 17 1012.8 1012.5 0.0
26/12:00am 28.9 28.8 19.9 58 5.9 ESE 20 35 11 19 1012.9 1012.6 0.0
 
Date/Time
CST
Temp
°C
App
Temp
°C
Dew
Point
Rel
Hum
%
Delta-T
°C
Wind Press
QNH
hPa
Press
MSL
hPa
Rain
since 9 am
mm
Dir
 
Spd
km/h
Gust
km/h
Spd
kts
Gust
kts
25/11:30pm 28.9 27.9 20.4 60 5.6 E 26 33 14 18 1012.9 1012.6 0.0
25/11:00pm 29.8 29.4 20.1 56 6.4 E 22 32 12 17 1012.5 1012.2 0.0
25/10:30pm 30.4 28.9 19.4 51 7.2 ESE 26 35 14 19 1012.3 1012.0 0.0
25/10:00pm 30.9 30.1 18.5 47 8.0 ESE 20 33 11 18 1012.2 1011.9 0.0
25/09:30pm 31.2 30.2 18.0 45 8.5 ESE 20 30 11 16 1011.8 1011.5 0.0
25/09:00pm 31.4 29.7 18.2 45 8.5 ESE 24 37 13 20 1011.6 1011.3 0.0
25/08:47pm 31.6 29.1 18.1 44 8.7 ESE 28 44 15 24 1011.4 1011.1 0.0
25/08:30pm 31.5 31.6 19.1 47 8.1 ESE 17 24 9 13 1011.1 1010.8 0.0
25/08:00pm 31.7 31.5 18.4 45 8.6 ESE 17 20 9 11 1010.7 1010.4 0.0
25/07:30pm 31.9 31.0 18.3 44 8.8 ESE 20 28 11 15 1010.3 1010.0 0.0
25/07:00pm 32.2 31.0 18.5 44 8.9 E 22 35 12 19 1009.7 1009.4 0.0
25/06:30pm 33.2 30.9 17.7 39 10.0 E 26 37 14 20 1009.4 1009.1 0.0
25/06:00pm 33.6 31.9 17.2 37 10.5 E 22 32 12 17 1008.9 1008.6 0.0
25/05:30pm 34.1 32.6 16.3 34 11.3 SE 19 24 10 13 1008.4 1008.1 0.0
25/05:00pm 34.7 33.1 15.9 32 11.9 SE 19 28 10 15 1008.2 1007.9 0.0
25/04:30pm 35.3 33.9 16.5 32 12.0 SSE 19 26 10 14 1008.2 1007.9 0.0
25/04:00pm 35.6 33.5 16.3 31 12.3 ESE 22 33 12 18 1008.3 1008.0 0.0
25/03:30pm 35.7 31.8 15.6 30 12.7 ESE 30 43 16 23 1008.4 1008.1 0.0
25/03:00pm 35.8 31.7 14.8 28 13.1 ESE 30 50 16 27 1008.5 1008.2 0.0
25/02:59pm 35.9 31.8 15.0 28 13.1 ESE 30 50 16 27 1008.4 1008.1 0.0
25/02:30pm 35.1 31.4 14.9 29 12.6 ESE 28 44 15 24 1008.9 1008.6 0.0
25/02:00pm 35.0 31.5 15.4 31 12.3 ESE 28 41 15 22 1009.4 1009.1 0.0
25/01:59pm 35.2 31.8 15.7 31 12.3 ESE 28 41 15 22 1009.5 1009.2 0.0
25/01:30pm 34.5 32.2 16.6 34 11.4 ESE 24 43 13 23 1010.1 1009.8 0.0
25/01:00pm 34.7 30.9 15.8 32 11.9 ESE 30 46 16 25 1010.5 1010.2 0.0
25/12:30pm 34.2 29.8 15.1 31 11.9 ESE 32 44 17 24 1011.2 1010.9 0.0
25/12:00pm 34.3 30.0 15.5 32 11.8 ESE 32 44 17 24 1011.5 1011.2 0.0
25/11:30am 33.9 32.3 16.6 35 11.0 ESE 20 35 11 19 1012.1 1011.8 0.0
25/11:00am 32.5 30.5 16.5 38 10.1 ESE 22 32 12 17 1012.6 1012.3 0.0
25/10:30am 31.8 29.7 16.2 39 9.8 SE 22 32 12 17 1012.9 1012.6 0.2
25/10:00am 31.2 31.3 18.3 46 8.3 SSE 15 20 8 11 1013.0 1012.7 0.2
25/09:30am 30.0 30.0 18.0 48 7.7 SSE 15 22 8 12 1013.0 1012.7 0.2
25/09:00am 29.6 29.7 18.4 51 7.2 S 15 20 8 11 1013.0 1012.7 0.2
25/08:30am 28.4 28.9 18.4 54 6.4 S 13 17 7 9 1012.9 1012.6 0.2
25/08:00am 27.2 29.1 19.0 61 5.3 SSW 7 9 4 5 1012.4 1012.1 0.2
25/07:30am 25.2 27.4 19.6 71 3.6 SSW 7 7 4 4 1012.3 1012.0 0.2
25/07:00am 24.0 26.4 19.7 77 2.8 SSW 6 7 3 4 1012.2 1011.9 0.2
25/06:30am 26.6 28.2 18.3 60 5.3 SSE 7 7 4 4 1011.9 1011.6 0.2
25/06:00am 26.4 27.1 17.9 59 5.4 ESE 11 15 6 8 1011.7 1011.4 0.2
25/05:30am 26.6 27.6 17.7 58 5.6 SE 9 13 5 7 1011.5 1011.2 0.2
25/05:00am 27.3 26.8 16.9 53 6.5 ESE 15 20 8 11 1011.5 1011.2 0.2
25/04:30am 27.5 27.7 17.7 55 6.2 SE 13 19 7 10 1011.5 1011.2 0.2

Other Formats:

Comma delimited format used in spreadsheet applications
http://www.bom.gov.au/fwo/IDD60801/IDD60801.94216.axf

JavaScript Object Notation format (JSON) in row-major order
http://www.bom.gov.au/fwo/IDD60801/IDD60801.94216.json